SBMN

Ponta Pelada Airport

Manaus, Brazil
TAF SBMN 212200Z 2200/2224 08004KT CAVOK TN23/2208Z TX30/2218Z BECMG 2206/2208 09004KT SCT008 BECMG 2209/2212 02010KT 2500 TSRA BKN010 FEW025CB BEC MG 2215/2217 08003KT SCT010 FEW025TCU BECMG 2220/2222 06002KT FEW020 RM K PEQ
Issued Valid From Valid To
Jan-21 @ 22:00 UTC
(2 hours ago)
Jan-22 @ 00:00 UTC
(7 minutes ago)
Jan-23 @ 00:00 UTC
(in 24 hours)
Jan-22 @ 00:00 to Jan-22 @ 06:00
TAF SBMN 212200Z 2200/2224 08004KT CAVOK TN23/2208Z TX30/2218Z
Wind Visibility Clouds
80° at 4 knots 10,000+ meters
  • No significant clouds
Becoming Jan-22 @ 06:00 to Jan-22 @ 09:00
BECMG 2206/2208 09004KT SCT008
Wind Visibility Clouds
90° at 4 knots 10,000+ meters
  • Scattered at 800' AGL
Becoming Jan-22 @ 09:00 to Jan-22 @ 20:00
BECMG 2209/2212 02010KT 2500 TSRA BKN010 FEW025CB BEC MG 2215/2217 08003KT SCT010 FEW025TCU
Wind Visibility Clouds Conditions
20° at 10 knots 2,494 meters
  • Broken at 1,000' AGL
  • Few at 2,500' AGL
  • Thunderstorm
  • Rain
Becoming Jan-22 @ 20:00 to Jan-23 @ 00:00
BECMG 2220/2222 06002KT FEW020 RM K PEQ
Wind Visibility Clouds Conditions
60° at 2 knots 2,494 meters
  • Few at 2,000' AGL
  • Ice pellets
TAF SBMN 212200Z 2200/2224 08004KT CAVOK TN23/2208Z TX30/2218Z BECMG 2206/2208 09004KT SCT008 BECMG 2209/2212 02010KT 2500 TSRA BKN010 FEW025CB BEC MG 2215/2217 08003KT SCT010 FEW025TCU BECMG 2220/2222 06002KT FEW020 RM K PEQ
Issued Jan-21 @ 22:00 UTC
(2 hours ago)
Valid From Jan-22 @ 00:00 UTC
(7 minutes ago)
Valid To Jan-23 @ 00:00 UTC
(in 24 hours)
Jan-22 @ 00:00 - Jan-22 @ 06:00
Wind Visibility
80° at 4 knots 10,000+ meters
Clouds
  • No significant clouds
Becoming Jan-22 @ 06:00 - Jan-22 @ 09:00
Wind Visibility
90° at 4 knots 10,000+ meters
Clouds
  • Scattered at 800' AGL
Becoming Jan-22 @ 09:00 - Jan-22 @ 20:00
Wind Visibility
20° at 10 knots 2,494 meters
Clouds
  • Broken at 1,000' AGL
  • Few at 2,500' AGL
Conditions
  • Thunderstorm
  • Rain
Becoming Jan-22 @ 20:00 - Jan-23 @ 00:00
Wind Visibility
60° at 2 knots 2,494 meters
Clouds
  • Few at 2,000' AGL
Conditions
  • Ice pellets